Time;durP1;ratioP1;P1;durP2;ratioP2;P2;SDS_P1;SDS_P2;PMS_P1;PMS_P2;Temp;Humidity;BMP_temperature;BMP_pressure;BME280_temperature;BME280_humidity;BME280_pressure;Samples;Min_cycle;Max_cycle;Signal;HPM_P1;HPM_P2
2022/08/18 00:00:39;;;;;;;13.53;9.90;;;;;;;21.23;98.52;99424.67;1775479;79;21950;-78
2022/08/18 00:03:47;;;;;;;13.05;9.75;;;;;;;21.24;99.08;99429.12;1779572;79;21264;-78
2022/08/18 00:06:55;;;;;;;13.20;10.55;;;;;;;21.00;100.00;99423.66;1788766;79;21216;-78
2022/08/18 00:10:00;;;;;;;19.67;10.93;;;;;;;20.97;100.00;99424.19;1784594;79;21760;-78
2022/08/18 00:13:09;;;;;;;15.30;10.25;;;;;;;20.89;100.00;99422.75;1774271;79;21779;-78
2022/08/18 00:16:15;;;;;;;15.40;9.93;;;;;;;20.70;100.00;99425.06;1773528;79;21228;-78
2022/08/18 00:19:21;;;;;;;12.15;10.10;;;;;;;20.66;100.00;99417.00;1788163;79;21185;-77
2022/08/18 00:22:28;;;;;;;14.45;11.45;;;;;;;20.73;100.00;99426.48;1791014;79;21228;-78
2022/08/18 00:25:34;;;;;;;16.75;11.73;;;;;;;20.64;100.00;99421.95;1782880;79;21209;-78
2022/08/18 00:28:40;;;;;;;17.50;11.25;;;;;;;20.60;100.00;99416.08;1774003;79;21288;-78
2022/08/18 00:31:46;;;;;;;16.45;11.95;;;;;;;20.77;100.00;99417.36;1794641;79;21229;-78
2022/08/18 00:34:52;;;;;;;15.05;11.53;;;;;;;20.60;100.00;99411.91;1778767;79;21204;-78
2022/08/18 00:37:58;;;;;;;17.45;11.40;;;;;;;20.72;100.00;99412.31;1789680;79;21201;-78
2022/08/18 00:41:03;;;;;;;23.40;12.88;;;;;;;20.67;100.00;99414.50;1779814;79;21180;-78
2022/08/18 00:44:09;;;;;;;15.15;11.40;;;;;;;20.59;100.00;99410.25;1782906;80;21411;-78
2022/08/18 00:47:15;;;;;;;20.95;11.57;;;;;;;20.50;100.00;99410.44;1753585;81;21241;-78
2022/08/18 00:50:27;;;;;;;15.55;11.22;;;;;;;20.57;100.00;99406.91;1717829;82;21242;-78
2022/08/18 00:53:44;;;;;;;15.25;12.05;;;;;;;20.63;100.00;99402.23;1787088;79;21830;-77
2022/08/18 00:56:57;;;;;;;24.45;13.08;;;;;;;20.63;100.00;99407.78;1794283;79;21244;-78
2022/08/18 01:00:10;;;;;;;13.70;11.80;;;;;;;20.55;100.00;99404.93;1774782;79;21192;-78
2022/08/18 01:03:20;;;;;;;15.80;11.70;;;;;;;20.47;100.00;99401.27;1784330;79;21233;-78
2022/08/18 01:06:48;;;;;;;14.30;11.83;;;;;;;20.40;100.00;99400.59;1792990;79;21252;-78
2022/08/18 01:09:57;;;;;;;17.15;11.53;;;;;;;20.47;100.00;99401.27;1795159;79;21260;-78
2022/08/18 01:13:04;;;;;;;19.07;12.90;;;;;;;20.63;100.00;99395.28;1782785;79;21248;-78
2022/08/18 01:23:20;;;;;;;12.63;10.93;;;;;;;20.64;100.00;99398.34;1787559;79;22557;-78
2022/08/18 01:26:25;;;;;;;17.50;11.93;;;;;;;20.53;100.00;99402.14;1740986;81;21247;-77
2022/08/18 01:29:30;;;;;;;20.12;11.97;;;;;;;20.52;100.00;99399.08;1790730;79;21212;-77
2022/08/18 01:32:38;;;;;;;17.87;12.07;;;;;;;20.35;100.00;99393.60;1777534;79;21833;-77
2022/08/18 01:35:43;;;;;;;17.67;12.60;;;;;;;20.47;100.00;99399.01;1795196;79;21202;-77
2022/08/18 01:38:55;;;;;;;16.62;12.63;;;;;;;20.47;100.00;99392.06;1770693;79;21209;-77
2022/08/18 01:42:03;;;;;;;18.27;12.93;;;;;;;20.51;100.00;99389.05;1787411;79;21189;-77
2022/08/18 01:45:11;;;;;;;17.20;12.10;;;;;;;20.51;100.00;99391.27;1772561;79;21307;-77
2022/08/18 01:48:16;;;;;;;17.45;13.18;;;;;;;20.55;100.00;99392.42;1794714;79;21228;-78
2022/08/18 01:51:23;;;;;;;14.05;12.45;;;;;;;20.52;100.00;99406.86;1769519;79;21188;-78
2022/08/18 01:54:30;;;;;;;22.22;13.32;;;;;;;20.46;100.00;99396.75;1792990;79;21260;-78
2022/08/18 01:57:37;;;;;;;17.12;12.85;;;;;;;20.13;100.00;99400.03;1785734;79;21228;-78
2022/08/18 02:00:43;;;;;;;18.20;13.93;;;;;;;20.37;100.00;99403.88;1795912;79;21212;-78
2022/08/18 02:03:53;;;;;;;19.45;12.78;;;;;;;20.48;100.00;99407.66;1750509;81;21272;-77
2022/08/18 02:07:01;;;;;;;15.98;13.20;;;;;;;20.52;100.00;99401.31;1705997;82;21240;-77
2022/08/18 02:10:08;;;;;;;17.15;13.40;;;;;;;20.35;100.00;99403.32;1784124;79;21208;-78
2022/08/18 02:13:16;;;;;;;26.17;13.30;;;;;;;20.33;100.00;99409.70;1770358;79;21802;-78
2022/08/18 02:16:21;;;;;;;15.58;13.53;;;;;;;20.25;100.00;99407.38;1783273;79;21520;-78
2022/08/18 02:19:27;;;;;;;14.55;12.95;;;;;;;20.28;100.00;99409.09;1776184;79;21293;-78
2022/08/18 02:22:34;;;;;;;22.70;14.43;;;;;;;20.41;100.00;99410.03;1777669;79;21212;-78
2022/08/18 02:25:39;;;;;;;19.25;15.03;;;;;;;20.36;100.00;99407.77;1780000;79;21216;-78
2022/08/18 02:28:45;;;;;;;22.27;14.43;;;;;;;20.28;100.00;99405.45;1758349;79;21203;-78
2022/08/18 02:31:51;;;;;;;15.98;13.60;;;;;;;20.21;100.00;99407.61;1751374;81;21229;-78
2022/08/18 02:34:57;;;;;;;21.17;13.60;;;;;;;20.29;100.00;99403.83;1754273;81;21173;-78
2022/08/18 02:38:10;;;;;;;17.92;13.43;;;;;;;20.51;100.00;99410.72;1742761;81;21227;-78
2022/08/18 02:41:16;;;;;;;;;;;;;;;20.34;100.00;99398.87;1749029;80;21229;-78
2022/08/18 02:44:21;;;;;;;15.85;12.65;;;;;;;20.41;100.00;99401.70;1750598;80;20239;-78
2022/08/18 02:47:30;;;;;;;18.40;12.55;;;;;;;20.37;100.00;99399.20;1750326;80;21208;-78
2022/08/18 02:50:43;;;;;;;;;;;;;;;20.47;100.00;99401.27;1753084;80;21205;-78
2022/08/18 02:53:43;;;;;;;16.82;12.58;;;;;;;20.52;100.00;99398.53;1755351;81;20235;-78
2022/08/18 02:56:50;;;;;;;19.05;13.45;;;;;;;20.49;100.00;99414.32;1754691;81;21557;-78
2022/08/18 02:59:56;;;;;;;18.15;13.68;;;;;;;20.53;100.00;99416.03;1695598;84;21370;-78
2022/08/18 03:03:03;;;;;;;17.60;13.30;;;;;;;20.64;100.00;99418.62;1708687;81;21232;-79
2022/08/18 03:06:09;;;;;;;17.82;13.15;;;;;;;20.71;100.00;99420.38;1716286;82;21333;-78
2022/08/18 03:09:16;;;;;;;17.17;12.60;;;;;;;20.93;100.00;99423.88;1701434;82;21212;-78
2022/08/18 03:12:24;;;;;;;15.48;11.35;;;;;;;20.90;100.00;99425.81;1696449;83;21246;-78
2022/08/18 03:15:30;;;;;;;15.15;12.07;;;;;;;21.09;100.00;99420.67;1698395;83;21242;-78
2022/08/18 03:18:36;;;;;;;17.48;11.08;;;;;;;21.40;100.00;99423.13;1747060;80;21222;-78
2022/08/18 03:21:41;;;;;;;16.95;11.88;;;;;;;21.14;100.00;99424.88;1745827;81;21210;-78
2022/08/18 03:24:48;;;;;;;17.07;12.37;;;;;;;21.35;100.00;99424.48;1731764;81;21286;-78
2022/08/18 03:27:54;;;;;;;20.80;11.73;;;;;;;21.66;100.00;99424.12;1748339;81;21353;-78
2022/08/18 03:31:00;;;;;;;15.35;12.03;;;;;;;21.88;100.00;99429.52;1747621;80;21801;-78
2022/08/18 03:34:07;;;;;;;16.12;12.37;;;;;;;22.03;100.00;99422.61;1748771;80;21308;-78
2022/08/18 03:37:15;;;;;;;16.17;11.55;;;;;;;22.12;100.00;99419.62;1754822;80;21208;-78
2022/08/18 03:40:21;;;;;;;14.25;11.35;;;;;;;22.22;100.00;99426.33;1767153;80;21261;-78
2022/08/18 03:43:26;;;;;;;16.80;11.55;;;;;;;22.41;100.00;99434.45;1730329;81;21226;-78
2022/08/18 03:46:34;;;;;;;15.05;11.88;;;;;;;22.56;100.00;99432.24;1742047;81;21236;-78
2022/08/18 03:49:40;;;;;;;19.30;11.73;;;;;;;23.01;98.06;99428.69;1759304;81;21211;-78
2022/08/18 03:52:49;;;;;;;12.70;10.70;;;;;;;23.20;96.80;99427.56;1724389;81;21240;-78
2022/08/18 03:55:55;;;;;;;18.45;12.20;;;;;;;23.38;95.01;99433.95;1740813;80;21253;-78
2022/08/18 03:59:03;;;;;;;13.08;10.53;;;;;;;23.51;94.21;99431.67;1732123;81;21789;-78
2022/08/18 04:02:11;;;;;;;12.68;11.00;;;;;;;23.70;92.36;99429.41;1759901;80;21246;-78
2022/08/18 04:05:15;;;;;;;16.55;11.70;;;;;;;23.85;91.08;99431.88;1748366;80;21211;-78
2022/08/18 04:08:22;;;;;;;13.53;10.43;;;;;;;23.94;89.78;99435.75;1753806;80;21564;-78
2022/08/18 04:11:27;;;;;;;14.18;10.23;;;;;;;23.88;89.93;99435.50;1740783;81;21777;-78
2022/08/18 04:14:33;;;;;;;20.15;10.53;;;;;;;24.00;88.46;99437.98;1759694;80;21266;-78
2022/08/18 04:17:39;;;;;;;12.13;9.60;;;;;;;24.09;88.05;99432.91;1748035;81;21294;-79
2022/08/18 04:20:46;;;;;;;12.80;9.33;;;;;;;24.17;87.05;99437.05;1712285;82;21216;-78
2022/08/18 04:23:54;;;;;;;13.15;9.48;;;;;;;24.37;85.75;99447.30;1733161;80;21230;-78
2022/08/18 04:27:00;;;;;;;11.50;9.33;;;;;;;24.54;85.20;99439.38;1728860;80;21231;-78
2022/08/18 04:30:07;;;;;;;17.45;9.83;;;;;;;24.61;84.06;99445.50;1745194;80;21301;-78
2022/08/18 04:33:14;;;;;;;14.60;10.28;;;;;;;24.63;83.74;99447.43;1726606;82;21808;-78
2022/08/18 04:36:22;;;;;;;10.80;9.70;;;;;;;24.70;83.55;99453.55;1757088;80;21178;-78
2022/08/18 04:39:28;;;;;;;13.05;10.03;;;;;;;24.74;83.48;99452.37;1758126;81;21226;-78
2022/08/18 04:42:34;;;;;;;17.50;10.65;;;;;;;24.68;84.58;99450.19;1744524;81;21267;-78
2022/08/18 04:45:41;;;;;;;11.83;9.88;;;;;;;24.84;84.29;99451.47;1749035;81;21222;-78
2022/08/18 04:48:47;;;;;;;12.18;10.10;;;;;;;25.10;83.51;99444.59;1747145;80;21342;-78
2022/08/18 04:55:19;;;;;;;14.28;9.98;;;;;;;25.16;84.03;99442.57;1744640;80;21418;-78
2022/08/18 04:58:29;;;;;;;12.33;9.60;;;;;;;25.33;83.70;99445.78;1737448;80;21227;-78
2022/08/18 05:01:36;;;;;;;11.37;9.10;;;;;;;25.36;83.82;99445.73;1757025;80;21265;-78
2022/08/18 05:04:49;;;;;;;16.93;9.65;;;;;;;25.54;82.38;99446.39;1735308;81;21341;-78
2022/08/18 05:07:53;;;;;;;11.15;9.55;;;;;;;25.66;81.98;99446.84;1740502;80;21242;-78
2022/08/18 05:11:03;;;;;;;16.00;9.20;;;;;;;25.85;80.73;99447.50;1737870;81;21221;-78
2022/08/18 05:14:12;;;;;;;10.10;8.93;;;;;;;25.67;81.23;99443.47;1745613;81;21235;-77
2022/08/18 05:17:17;;;;;;;13.32;9.00;;;;;;;25.96;81.20;99444.83;1738753;81;21273;-78
2022/08/18 05:20:25;;;;;;;11.48;7.37;;;;;;;26.06;81.09;99446.10;1796155;79;21190;-78
2022/08/18 05:23:30;;;;;;;9.78;7.28;;;;;;;26.12;78.79;99448.30;1720770;81;21244;-78
2022/08/18 05:26:36;;;;;;;14.50;7.12;;;;;;;26.25;76.94;99444.20;1781278;79;21831;-78
2022/08/18 05:29:42;;;;;;;12.03;6.97;;;;;;;26.48;75.78;99441.65;1742190;81;21212;-78
2022/08/18 05:32:53;;;;;;;8.70;7.20;;;;;;;26.79;75.00;99434.19;1774229;79;21787;-78
2022/08/18 05:36:02;;;;;;;9.93;7.28;;;;;;;26.80;74.29;99438.66;1717308;82;21234;-78
2022/08/18 05:39:38;;;;;;;10.78;7.58;;;;;;;26.90;75.37;99441.30;1716061;82;21495;-78
2022/08/18 05:42:47;;;;;;;9.23;6.58;;;;;;;27.03;74.51;99441.09;1734490;81;21862;-78
2022/08/18 05:45:56;;;;;;;15.28;7.00;;;;;;;27.10;73.02;99438.74;1772486;80;21338;-78
2022/08/18 05:49:02;;;;;;;8.03;6.53;;;;;;;27.14;71.51;99437.82;1768175;80;21347;-78
2022/08/18 05:52:17;;;;;;;11.85;7.42;;;;;;;27.45;71.08;99432.50;1768289;80;21806;-78
2022/08/18 05:59:03;;;;;;;8.15;6.60;;;;;;;27.93;70.07;99439.75;1762414;80;21229;-78
2022/08/18 06:02:30;;;;;;;13.95;8.10;;;;;;;28.05;68.90;99441.48;1757070;80;21273;-78
2022/08/18 06:05:43;;;;;;;11.88;7.20;;;;;;;28.15;69.35;99434.81;1774500;79;21870;-78
2022/08/18 06:08:54;;;;;;;10.15;7.08;;;;;;;28.39;68.88;99444.44;1765407;79;21306;-78
2022/08/18 06:12:04;;;;;;;8.45;6.78;;;;;;;28.59;68.22;99443.96;1724957;81;21229;-78
2022/08/18 06:15:23;;;;;;;13.68;6.90;;;;;;;28.57;67.77;99445.44;1744663;80;21238;-78
2022/08/18 06:18:50;;;;;;;7.47;6.60;;;;;;;28.69;66.46;99436.69;1761475;79;21244;-78
2022/08/18 06:22:00;;;;;;;10.48;6.50;;;;;;;28.62;65.41;99443.92;1750706;79;21815;-78
2022/08/18 06:25:41;;;;;;;13.40;7.05;;;;;;;28.72;64.71;99445.91;1750406;80;21244;-78
2022/08/18 06:29:27;;;;;;;11.43;6.90;;;;;;;28.63;64.93;99447.81;1650483;85;22603;-78
2022/08/18 06:33:02;;;;;;;10.38;7.53;;;;;;;28.69;64.05;99447.11;1606317;87;21284;-78
2022/08/18 06:36:27;;;;;;;14.18;7.03;;;;;;;28.79;63.54;99453.89;1759601;79;21277;-78
2022/08/18 06:39:55;;;;;;;10.35;7.50;;;;;;;29.14;63.03;99447.19;1754298;79;21229;-78
2022/08/18 06:43:08;;;;;;;8.50;7.28;;;;;;;29.21;63.00;99444.16;1771126;79;21252;-78
2022/08/18 06:46:21;;;;;;;11.90;6.85;;;;;;;29.28;61.32;99444.55;1760795;79;21244;-79
2022/08/18 06:49:35;;;;;;;9.50;6.67;;;;;;;29.11;61.88;99444.42;1749710;79;21223;-78
2022/08/18 06:52:44;;;;;;;10.20;6.30;;;;;;;29.16;61.82;99444.28;1766011;79;22511;-78
2022/08/18 06:55:54;;;;;;;9.10;6.20;;;;;;;29.28;60.83;99445.95;1760802;80;21222;-78
2022/08/18 06:59:03;;;;;;;11.35;6.58;;;;;;;29.44;61.12;99448.36;1729571;81;21487;-78
2022/08/18 07:02:30;;;;;;;7.00;5.60;;;;;;;29.41;61.02;99446.20;1712946;82;21248;-78
2022/08/18 07:05:39;;;;;;;6.12;4.78;;;;;;;29.49;57.53;99452.45;1770679;79;21866;-78
2022/08/18 07:08:47;;;;;;;10.55;5.45;;;;;;;29.49;57.53;99452.45;1761575;79;21261;-78
2022/08/18 07:12:13;;;;;;;7.65;5.53;;;;;;;29.58;57.40;99448.30;1707547;81;21226;-78
2022/08/18 07:15:19;;;;;;;6.72;5.17;;;;;;;29.72;57.32;99443.41;1749262;79;21249;-78
2022/08/18 07:18:32;;;;;;;8.25;6.03;;;;;;;29.89;56.26;99441.25;1760998;79;21879;-78
2022/08/18 07:21:40;;;;;;;7.12;5.83;;;;;;;30.09;57.19;99448.28;1764580;79;21204;-78
2022/08/18 07:24:57;;;;;;;8.73;5.33;;;;;;;30.13;54.99;99443.09;1770700;79;21196;-78
2022/08/18 07:28:03;;;;;;;7.70;5.37;;;;;;;30.19;53.20;99443.77;1779520;79;21258;-78
2022/08/18 07:31:46;;;;;;;9.68;4.65;;;;;;;30.18;53.63;99444.94;1769098;79;21202;-78
2022/08/18 07:34:57;;;;;;;9.98;5.58;;;;;;;30.56;53.16;99448.00;1764858;79;22402;-78
2022/08/18 07:38:19;;;;;;;7.42;5.05;;;;;;;30.21;53.37;99443.71;1747756;79;21207;-78
2022/08/18 07:41:34;;;;;;;8.00;4.97;;;;;;;30.25;52.84;99439.08;1758946;79;21288;-79
2022/08/18 07:45:04;;;;;;;5.60;4.62;;;;;;;30.05;53.78;99435.41;1732973;81;21232;-78
2022/08/18 07:48:29;;;;;;;8.40;4.80;;;;;;;30.18;52.13;99434.48;1690751;82;21799;-78
2022/08/18 07:51:53;;;;;;;7.75;4.80;;;;;;;30.38;51.36;99432.20;1694679;82;21254;-78
2022/08/18 07:55:15;;;;;;;6.17;4.83;;;;;;;30.32;51.57;99423.66;1762877;79;21212;-78
2022/08/18 07:58:34;;;;;;;5.17;4.42;;;;;;;30.33;51.37;99428.95;1764915;79;21185;-78
2022/08/18 08:01:59;;;;;;;5.67;5.12;;;;;;;30.43;50.61;99420.76;1766016;79;21220;-78
2022/08/18 08:05:43;;;;;;;7.35;4.85;;;;;;;30.34;50.76;99428.38;1767776;79;21336;-78
2022/08/18 08:09:08;;;;;;;8.05;4.87;;;;;;;30.48;50.33;99427.06;1751826;79;21200;-78
2022/08/18 08:12:33;;;;;;;9.63;5.05;;;;;;;30.59;50.65;99433.24;1768752;79;21209;-78
2022/08/18 08:15:56;;;;;;;8.43;5.30;;;;;;;30.60;51.07;99427.84;1772098;79;21213;-78
2022/08/18 08:19:28;;;;;;;7.22;5.75;;;;;;;30.69;51.19;99418.80;1710551;82;21229;-78
2022/08/18 08:23:09;;;;;;;11.10;5.75;;;;;;;30.45;51.99;99419.87;1767592;79;21804;-78
2022/08/18 08:26:39;;;;;;;10.25;5.67;;;;;;;30.36;53.77;99416.20;1768731;79;21268;-79
2022/08/18 09:31:09;;;;;;;7.53;5.62;;;;;;;27.41;68.84;99408.16;1875672;76;22224;-79
2022/08/18 09:34:46;;;;;;;7.20;6.05;;;;;;;27.43;68.15;99405.32;1778644;80;21236;-80
2022/08/18 09:41:33;;;;;;;7.12;4.78;;;;;;;27.72;66.17;99395.22;1756438;80;21762;-81
2022/08/18 09:44:59;;;;;;;11.20;5.00;;;;;;;27.99;64.87;99395.77;1778502;80;21210;-79
2022/08/18 09:48:40;;;;;;;7.83;4.50;;;;;;;28.08;63.66;99393.05;1751824;80;21210;-80
2022/08/18 09:51:46;;;;;;;11.22;6.67;;;;;;;28.27;62.75;99395.14;1765817;79;21220;-79
2022/08/18 09:55:08;;;;;;;8.40;6.17;;;;;;;28.15;66.87;99398.27;1747728;80;21220;-80
2022/08/18 09:58:33;;;;;;;6.65;5.72;;;;;;;28.09;67.66;99393.88;1772789;80;21664;-80
2022/08/18 10:01:45;;;;;;;14.33;6.00;;;;;;;28.11;66.52;99388.22;1758210;80;21236;-79
2022/08/18 10:04:52;;;;;;;10.53;6.58;;;;;;;27.94;66.18;99382.40;1755964;80;21203;-79
2022/08/18 10:08:18;;;;;;;6.95;5.97;;;;;;;27.94;66.33;99383.80;1750255;82;21192;-79
2022/08/18 10:11:31;;;;;;;9.50;6.20;;;;;;;28.01;65.11;99391.25;1754509;80;21199;-79
2022/08/18 10:14:42;;;;;;;8.30;6.12;;;;;;;27.98;64.80;99400.30;1768951;80;21232;-80
2022/08/18 10:17:59;;;;;;;9.88;6.33;;;;;;;27.78;64.43;99411.98;1778302;80;21204;-78
2022/08/18 10:21:27;;;;;;;9.18;6.83;;;;;;;27.89;66.24;99429.70;1714731;81;21353;-79
2022/08/18 10:24:42;;;;;;;12.73;6.00;;;;;;;28.10;66.49;99432.11;1737241;81;21123;-79
2022/08/18 10:27:56;;;;;;;9.38;5.85;;;;;;;28.31;64.30;99432.48;1741932;81;21212;-79
2022/08/18 10:31:13;;;;;;;6.80;5.37;;;;;;;28.31;63.20;99428.27;1728616;81;21195;-80
2022/08/18 10:34:20;;;;;;;7.00;5.63;;;;;;;28.45;61.82;99422.90;1721450;82;21225;-79
2022/08/18 10:37:51;;;;;;;7.55;5.72;;;;;;;28.39;60.64;99432.61;1727375;82;21205;-79
2022/08/18 10:41:10;;;;;;;7.10;5.37;;;;;;;28.43;60.00;99437.03;1724420;82;21201;-79
2022/08/18 10:44:21;;;;;;;8.65;5.55;;;;;;;28.53;58.64;99424.97;1731717;82;21203;-79
2022/08/18 10:47:37;;;;;;;6.10;5.05;;;;;;;28.41;58.38;99416.81;1714438;82;21804;-80
2022/08/18 10:51:15;;;;;;;10.03;6.33;;;;;;;28.42;59.04;99409.49;1723011;82;21229;-80
2022/08/18 11:14:42;;;;;;;8.23;7.08;;;;;;;28.47;66.41;99380.42;1794838;79;29380;-78
2022/08/18 11:18:41;;;;;;;10.18;6.37;;;;;;;28.51;66.18;99383.69;1772678;80;21161;-79
2022/08/18 11:21:53;;;;;;;13.38;7.37;;;;;;;28.51;67.07;99382.28;1800318;79;21252;-78
2022/08/18 11:24:58;;;;;;;12.47;7.67;;;;;;;28.58;66.55;99381.83;1752164;81;21242;-79
2022/08/18 11:28:05;;;;;;;8.20;7.40;;;;;;;28.63;66.73;99378.88;1775934;80;21176;-79
2022/08/18 11:31:13;;;;;;;10.35;7.65;;;;;;;28.77;66.62;99368.98;1779460;80;21215;-79
2022/08/18 11:34:25;;;;;;;9.68;8.03;;;;;;;28.82;66.22;99354.78;1789706;80;21168;-79
2022/08/18 11:37:52;;;;;;;10.85;8.15;;;;;;;28.91;66.96;99364.12;1770200;80;21180;-79
2022/08/18 11:41:00;;;;;;;10.75;7.30;;;;;;;29.07;65.06;99374.42;1782695;80;21204;-79
2022/08/18 11:44:06;;;;;;;15.60;9.03;;;;;;;29.07;65.06;99374.42;1791059;79;21251;-80
2022/08/18 11:47:24;;;;;;;12.23;8.38;;;;;;;29.26;64.32;99376.44;1770223;79;21196;-79
2022/08/18 11:50:36;;;;;;;10.88;7.67;;;;;;;29.39;64.82;99376.09;1805330;79;21176;-80
2022/08/18 11:53:50;;;;;;;14.53;6.87;;;;;;;29.39;64.04;99366.81;1773774;80;21240;-79
2022/08/18 11:57:01;;;;;;;8.00;6.28;;;;;;;29.52;61.92;99363.08;1767414;80;21148;-79
2022/08/18 12:00:08;;;;;;;7.40;5.67;;;;;;;29.50;61.45;99363.96;1772546;79;21160;-79
2022/08/18 12:03:32;;;;;;;12.93;6.20;;;;;;;29.51;61.38;99361.42;1778017;80;21192;-79
2022/08/18 12:06:38;;;;;;;12.75;6.25;;;;;;;29.58;61.79;99366.02;1795152;80;21710;-79
2022/08/18 12:09:54;;;;;;;13.38;6.17;;;;;;;29.55;61.96;99363.88;1795572;80;21184;-80
2022/08/18 12:13:01;;;;;;;10.13;6.40;;;;;;;29.41;61.24;99364.53;1762693;81;21215;-79
2022/08/18 12:16:24;;;;;;;15.08;6.28;;;;;;;29.41;61.24;99364.53;1763922;81;21195;-79
2022/08/18 12:19:30;;;;;;;11.12;6.05;;;;;;;29.43;62.06;99363.61;1761727;81;21204;-79
2022/08/18 12:22:36;;;;;;;8.23;5.87;;;;;;;29.43;62.06;99363.61;1777029;80;21230;-79
2022/08/18 12:25:42;;;;;;;9.48;6.40;;;;;;;29.41;62.44;99370.98;1785990;80;21211;-79
2022/08/18 12:28:49;;;;;;;10.28;6.17;;;;;;;29.37;62.24;99367.73;1774931;80;21208;-79
2022/08/18 12:31:59;;;;;;;7.95;5.87;;;;;;;29.22;61.86;99359.96;1763744;81;21196;-79
2022/08/18 12:34:59;;;;;;;9.13;5.95;;;;;;;29.26;62.31;99353.08;1764354;81;21192;-79
2022/08/18 12:38:06;;;;;;;7.12;5.72;;;;;;;29.25;63.65;99355.07;1764136;81;21243;-79
2022/08/18 12:41:10;;;;;;;10.45;6.85;;;;;;;29.29;63.29;99348.22;1762936;81;21185;-79
2022/08/18 12:44:17;;;;;;;8.98;6.50;;;;;;;29.20;63.23;99358.61;1762413;81;21220;-79
2022/08/18 12:47:32;;;;;;;7.67;6.12;;;;;;;29.23;63.69;99368.66;1762001;81;21212;-79
2022/08/18 12:50:38;;;;;;;10.30;6.35;;;;;;;29.18;62.62;99367.97;1775994;79;21250;-79
2022/08/18 12:53:46;;;;;;;9.10;5.87;;;;;;;29.17;62.64;99379.81;1812886;79;21564;-80
2022/08/18 12:57:01;;;;;;;7.58;5.92;;;;;;;29.19;63.11;99383.12;1795389;79;21198;-79
2022/08/18 13:00:07;;;;;;;8.60;5.92;;;;;;;29.29;62.36;99391.29;1807348;79;21220;-79
2022/08/18 13:03:18;;;;;;;8.53;6.47;;;;;;;29.30;61.53;99389.30;1816401;79;21221;-79
2022/08/18 13:06:25;;;;;;;10.13;6.75;;;;;;;29.26;61.75;99389.11;1814119;79;21182;-79
2022/08/18 13:09:31;;;;;;;11.03;6.03;;;;;;;29.33;61.51;99394.88;1816331;79;21186;-79
2022/08/18 13:12:39;;;;;;;10.35;6.12;;;;;;;29.41;62.08;99399.16;1814458;79;21178;-79
2022/08/18 13:15:45;;;;;;;8.80;6.40;;;;;;;29.54;61.66;99401.59;1793047;77;21261;-79
2022/08/18 13:18:51;;;;;;;9.78;6.65;;;;;;;29.56;62.05;99388.65;1722872;83;21187;-79
2022/08/18 13:21:57;;;;;;;11.75;6.60;;;;;;;29.56;62.05;99388.65;1745929;82;21187;-79
2022/08/18 13:25:03;;;;;;;9.15;6.58;;;;;;;29.66;61.66;99381.31;1750715;82;21278;-80
2022/08/18 13:28:11;;;;;;;10.00;6.37;;;;;;;29.72;59.95;99378.59;1752114;82;22274;-79
2022/08/18 13:31:18;;;;;;;12.43;7.00;;;;;;;29.71;59.96;99379.17;1752159;82;21196;-79
2022/08/18 13:34:26;;;;;;;9.45;6.33;;;;;;;29.58;59.92;99368.84;1751858;82;21745;-79
2022/08/18 13:37:34;;;;;;;9.50;6.28;;;;;;;29.60;59.51;99364.31;1751554;82;21199;-79
2022/08/18 13:40:41;;;;;;;11.90;6.83;;;;;;;29.58;59.48;99353.92;1752884;82;21160;-79
2022/08/18 13:43:49;;;;;;;11.20;6.92;;;;;;;29.57;60.17;99355.92;1752708;82;21350;-79
2022/08/18 13:46:56;;;;;;;10.98;6.30;;;;;;;29.53;59.84;99355.70;1753085;82;21215;-79
2022/08/18 13:50:03;;;;;;;17.70;6.83;;;;;;;29.52;59.97;99358.27;1753093;82;21171;-79
2022/08/18 13:53:14;;;;;;;9.98;6.42;;;;;;;29.57;59.44;99370.00;1752977;82;21179;-79
2022/08/18 13:56:19;;;;;;;9.90;6.55;;;;;;;29.57;59.44;99370.00;1752723;82;21168;-79
2022/08/18 13:59:30;;;;;;;7.70;5.87;;;;;;;29.62;58.23;99366.21;1752672;82;21227;-79
2022/08/18 14:02:33;;;;;;;7.95;6.10;;;;;;;29.67;57.67;99368.87;1752902;82;21164;-79
2022/08/18 14:05:38;;;;;;;6.87;5.58;;;;;;;29.75;56.47;99368.09;1751648;82;21259;-79
2022/08/18 14:08:47;;;;;;;9.30;6.42;;;;;;;29.83;56.17;99374.89;1752927;82;21251;-79
2022/08/18 14:11:55;;;;;;;10.25;6.87;;;;;;;29.43;57.24;99380.52;1753028;82;21195;-78
2022/08/18 14:15:00;;;;;;;12.63;5.80;;;;;;;29.40;57.70;99385.38;1753875;79;21200;-79
2022/08/18 14:18:07;;;;;;;10.05;5.78;;;;;;;29.26;57.36;99389.11;1777109;80;21244;-79
2022/08/18 14:28:03;;;;;;;11.20;6.60;;;;;;;29.04;59.56;99406.05;1778762;80;21184;-79
2022/08/18 14:31:10;;;;;;;9.80;6.45;;;;;;;29.00;60.42;99405.02;1778299;80;21248;-79
2022/08/18 14:34:18;;;;;;;12.70;6.37;;;;;;;28.82;60.56;99411.06;1778529;80;21291;-79
2022/08/18 14:37:25;;;;;;;10.23;6.67;;;;;;;28.58;61.39;99415.58;1778561;80;21228;-79
2022/08/18 14:40:35;;;;;;;12.13;7.12;;;;;;;28.38;61.74;99417.47;1778592;80;21184;-79
2022/08/18 14:43:42;;;;;;;11.93;6.45;;;;;;;28.32;61.86;99414.46;1778780;80;21220;-79
2022/08/18 14:46:56;;;;;;;9.90;6.95;;;;;;;28.16;62.39;99417.62;1776978;80;21284;-79
2022/08/18 14:50:02;;;;;;;8.65;6.40;;;;;;;28.08;63.68;99421.16;1778781;80;21183;-79
2022/08/18 14:53:08;;;;;;;8.28;6.50;;;;;;;28.01;63.44;99423.58;1778652;80;21181;-79
2022/08/18 14:56:13;;;;;;;13.28;8.20;;;;;;;27.94;63.63;99414.72;1777405;80;21189;-79
2022/08/18 14:59:21;;;;;;;13.53;8.15;;;;;;;27.86;64.25;99411.25;1778861;80;21176;-79
2022/08/18 15:02:29;;;;;;;10.80;7.72;;;;;;;27.62;64.82;99408.59;1778784;80;21161;-78
2022/08/18 15:05:35;;;;;;;10.35;7.72;;;;;;;27.42;66.03;99410.65;1778068;80;21216;-79
2022/08/18 15:08:43;;;;;;;10.80;7.47;;;;;;;27.39;66.84;99419.71;1778705;80;21189;-79
2022/08/18 15:11:50;;;;;;;11.63;8.58;;;;;;;27.44;67.25;99420.19;1779095;80;21193;-79
2022/08/18 15:14:58;;;;;;;12.68;8.55;;;;;;;27.33;67.78;99422.91;1778797;80;21181;-80
2022/08/18 15:18:04;;;;;;;10.00;7.62;;;;;;;27.30;68.11;99416.52;1779442;79;21220;-79
2022/08/18 15:27:59;;;;;;;10.38;7.92;;;;;;;27.10;68.10;99424.71;1781677;80;21181;-79
2022/08/18 15:31:06;;;;;;;12.10;7.87;;;;;;;26.95;68.62;99426.61;1781318;80;21224;-79
2022/08/18 15:34:15;;;;;;;18.98;8.83;;;;;;;26.91;69.29;99428.92;1781578;80;21179;-79
2022/08/18 15:37:23;;;;;;;10.25;7.95;;;;;;;26.93;69.63;99423.86;1781601;80;21723;-79
2022/08/18 15:40:33;;;;;;;11.70;7.90;;;;;;;26.79;70.43;99422.97;1781663;80;21252;-79
2022/08/18 15:43:42;;;;;;;10.13;7.40;;;;;;;26.67;71.13;99421.45;1781671;80;21292;-79
2022/08/18 15:46:50;;;;;;;9.98;8.38;;;;;;;26.68;71.47;99426.52;1780617;80;21256;-79
2022/08/18 15:49:54;;;;;;;9.93;7.72;;;;;;;26.75;71.71;99422.17;1781779;80;21283;-79
2022/08/18 15:53:05;;;;;;;12.00;8.85;;;;;;;26.73;71.42;99418.02;1781169;80;21220;-79
2022/08/18 15:56:10;;;;;;;23.95;8.50;;;;;;;26.54;71.80;99420.83;1780323;80;21766;-81
2022/08/18 15:59:18;;;;;;;11.83;8.05;;;;;;;26.41;72.03;99413.97;1780296;80;21188;-81
2022/08/18 16:02:25;;;;;;;10.85;8.18;;;;;;;26.46;72.14;99411.69;1780406;80;21342;-81
2022/08/18 16:05:34;;;;;;;10.15;7.83;;;;;;;26.37;72.58;99409.27;1780341;80;21220;-81
2022/08/18 16:08:41;;;;;;;10.90;7.40;;;;;;;26.20;72.95;99407.80;1814451;79;21184;-80
2022/08/18 16:11:46;;;;;;;13.20;7.90;;;;;;;26.00;73.28;99420.13;1819686;79;21169;-80
2022/08/18 16:14:54;;;;;;;14.50;7.15;;;;;;;25.95;73.45;99422.16;1800636;79;21166;-80
2022/08/18 16:18:00;;;;;;;9.85;8.03;;;;;;;25.90;73.83;99421.66;1816149;79;21200;-80
2022/08/18 16:21:15;;;;;;;18.87;7.92;;;;;;;25.88;73.35;99421.14;1816721;79;21215;-81
2022/08/18 16:24:20;;;;;;;12.07;7.65;;;;;;;25.81;73.21;99429.62;1816389;79;22537;-80
2022/08/18 16:27:27;;;;;;;11.38;7.83;;;;;;;25.68;73.50;99426.92;1815434;79;21208;-81
2022/08/18 16:30:33;;;;;;;14.03;7.45;;;;;;;25.61;73.21;99425.89;1816514;79;21172;-80
2022/08/18 16:33:39;;;;;;;12.65;6.92;;;;;;;25.60;73.15;99434.03;1815180;79;21766;-81
2022/08/18 16:36:44;;;;;;;9.73;6.72;;;;;;;25.52;73.30;99438.04;1816123;79;21196;-80
2022/08/18 16:39:50;;;;;;;10.93;8.28;;;;;;;25.43;73.75;99451.84;1816653;79;21176;-80